Time;durP1;ratioP1;P1;durP2;ratioP2;P2;SDS_P1;SDS_P2;PMS_P1;PMS_P2;Temp;Humidity;BMP_temperature;BMP_pressure;BME280_temperature;BME280_humidity;BME280_pressure;Samples;Min_cycle;Max_cycle;Signal;HPM_P1;HPM_P2
2024/04/19 00:01:02;;;;;;;19.30;10.30;;;;;;;1.54;79.71;100047.06;128496;1274;114822;-62
2024/04/19 00:05:03;;;;;;;13.30;9.20;;;;;;;1.59;79.75;100043.63;128445;1278;114851;-62
2024/04/19 00:08:59;;;;;;;12.40;8.70;;;;;;;1.64;79.98;100041.26;123832;1299;114863;-63
2024/04/19 00:12:43;;;;;;;;;;;;;;;;;;;;;
2024/04/19 00:16:30;;;;;;;14.00;10.30;;;;;;;1.73;80.07;100042.16;127263;1304;114931;-63
2024/04/19 00:20:36;;;;;;;15.80;10.10;;;;;;;1.74;79.72;100041.42;126360;1293;130272;-63
2024/04/19 00:24:19;;;;;;;13.60;10.20;;;;;;;1.72;79.71;100037.77;125616;1302;114930;-62
2024/04/19 00:28:00;;;;;;;14.50;8.70;;;;;;;1.69;79.50;100037.29;124276;1314;115743;-63
2024/04/19 00:35:16;;;;;;;13.30;9.60;;;;;;;1.60;79.04;100033.77;126295;1305;636543;-64
2024/04/19 00:38:41;;;;;;;16.50;9.10;;;;;;;1.53;79.17;100034.06;128714;1266;128831;-62
2024/04/19 00:42:28;;;;;;;;;;;;;;;;;;;;;
2024/04/19 00:45:53;;;;;;;13.80;8.50;;;;;;;1.38;78.93;100030.61;127645;1290;114997;-62
2024/04/19 00:49:49;;;;;;;13.60;8.20;;;;;;;1.30;79.26;100027.05;124237;1284;5440259;-62
2024/04/19 00:53:18;;;;;;;13.30;8.00;;;;;;;1.23;79.00;100024.86;127558;1287;114855;-62
2024/04/19 00:57:02;;;;;;;14.40;7.30;;;;;;;1.16;79.40;100018.29;127980;1292;129223;-62
2024/04/19 01:00:40;;;;;;;14.30;8.80;;;;;;;1.09;79.16;100019.80;127191;1288;114925;-62
2024/04/19 01:04:30;;;;;;;11.80;7.30;;;;;;;1.01;78.89;100018.14;126631;1308;114752;-61
2024/04/19 01:08:31;;;;;;;13.90;8.00;;;;;;;0.95;79.20;100009.27;126575;1290;114862;-62
2024/04/19 01:12:32;;;;;;;12.90;7.90;;;;;;;0.88;79.18;100006.75;125818;1299;114940;-62
2024/04/19 01:16:24;;;;;;;12.20;8.10;;;;;;;0.81;79.17;100001.39;125909;1315;129860;-63
2024/04/19 01:19:50;;;;;;;;;;;;;;;0.75;79.40;99998.48;125073;1310;114908;-63
2024/04/19 01:23:27;;;;;;;;;;;;;;;;;;;;;
2024/04/19 01:27:09;;;;;;;12.30;8.00;;;;;;;0.65;79.00;99994.06;125137;1307;114824;-63
2024/04/19 01:30:45;;;;;;;;;;;;;;;;;;;;;
2024/04/19 01:34:20;;;;;;;14.50;8.10;;;;;;;0.54;79.28;99987.35;124522;1312;130701;-62
2024/04/19 01:37:42;;;;;;;;;;;;;;;;;;;;;
2024/04/19 01:41:31;;;;;;;14.30;8.20;;;;;;;0.42;79.43;99993.48;125403;1304;114776;-63
2024/04/19 01:45:24;;;;;;;13.00;8.30;;;;;;;0.36;79.26;99984.23;125279;1304;114908;-62
2024/04/19 01:49:02;;;;;;;14.70;8.40;;;;;;;0.32;79.74;99981.50;124760;1323;114903;-62
2024/04/19 01:52:56;;;;;;;;;;;;;;;;;;;;;
2024/04/19 01:56:09;;;;;;;11.20;7.60;;;;;;;0.27;79.81;99969.61;124577;1306;114978;-62
2024/04/19 02:00:02;;;;;;;;;;;;;;;;;;;;;
2024/04/19 02:03:49;;;;;;;12.50;7.70;;;;;;;0.26;79.90;99961.02;125349;1320;115003;-61
2024/04/19 02:07:41;;;;;;;14.30;7.70;;;;;;;0.26;80.23;99958.20;124879;1324;114896;-62
2024/04/19 02:11:34;;;;;;;14.90;8.20;;;;;;;0.27;80.04;99960.11;124733;1318;129645;-62
2024/04/19 02:15:22;;;;;;;13.10;8.30;;;;;;;0.28;80.30;99955.38;123854;1318;114982;-63
2024/04/19 02:19:14;;;;;;;;;;;;;;;;;;;;;
2024/04/19 02:31:08;;;;;;;15.10;9.50;;;;;;;0.35;80.44;99937.89;128299;1272;128918;-62
2024/04/19 02:35:13;;;;;;;15.20;10.10;;;;;;;0.34;80.23;99935.10;128254;1278;115094;-62
2024/04/19 02:38:47;;;;;;;18.30;7.90;;;;;;;0.32;80.17;99928.63;127314;1305;114852;-61
2024/04/19 02:42:52;;;;;;;;;;;;;;;;;;;;;
2024/04/19 02:46:34;;;;;;;15.70;7.20;;;;;;;0.30;80.66;99922.86;126656;1289;114975;-63
2024/04/19 02:50:31;;;;;;;;;;;;;;;0.33;81.02;99921.06;125921;1301;114942;-62
2024/04/19 02:54:12;;;;;;;12.30;7.00;;;;;;;0.36;81.02;99916.45;125940;1293;129751;-62
2024/04/19 02:57:52;;;;;;;;;;;;;;;;;;;;;
2024/04/19 03:01:02;;;;;;;10.00;5.80;;;;;;;0.42;81.11;99909.52;125529;1314;114796;-63
2024/04/19 03:04:49;;;;;;;10.40;5.60;;;;;;;0.44;80.93;99903.51;125425;1312;114962;-63
2024/04/19 03:08:23;;;;;;;;;;;;;;;;;;;;;
2024/04/19 03:11:49;;;;;;;8.70;5.80;;;;;;;0.45;81.45;99898.92;125297;1299;129781;-62
2024/04/19 03:15:03;;;;;;;9.90;5.80;;;;;;;0.47;81.25;99898.73;125968;1309;114897;-62
2024/04/19 03:18:51;;;;;;;10.80;5.70;;;;;;;0.48;81.26;99900.65;126757;1281;114940;-62
2024/04/19 03:22:32;;;;;;;9.70;6.40;;;;;;;0.50;81.38;99895.16;127344;1303;114941;-62
2024/04/19 03:25:43;;;;;;;8.50;5.50;;;;;;;0.52;81.49;99890.92;127228;1292;114898;-63
2024/04/19 03:29:23;;;;;;;;;;;;;;;;;;;;;
2024/04/19 03:32:46;;;;;;;9.60;5.20;;;;;;;0.56;81.34;99878.21;127678;1289;114888;-63
2024/04/19 03:36:41;;;;;;;10.30;5.70;;;;;;;0.58;81.65;99873.27;128752;1276;114850;-62
2024/04/19 03:40:09;;;;;;;8.50;4.80;;;;;;;0.59;81.58;99865.85;128461;1287;114948;-61
2024/04/19 03:47:31;;;;;;;7.20;4.10;;;;;;;0.67;81.80;99861.52;127685;1277;128853;-63
2024/04/19 03:51:10;;;;;;;10.10;4.50;;;;;;;0.74;82.15;99863.17;128462;1272;114916;-62
2024/04/19 03:55:13;;;;;;;7.70;4.90;;;;;;;0.84;82.36;99858.77;128640;1277;114928;-62
2024/04/19 03:59:11;;;;;;;;;;;;;;;;;;;;;
2024/04/19 04:03:02;;;;;;;;;;;;;;;;;;;;;
2024/04/19 04:06:50;;;;;;;;;;;;;;;;;;;;;
2024/04/19 04:10:42;;;;;;;;;;;;;;;;;;;;;
2024/04/19 04:14:23;;;;;;;;;;;;;;;;;;;;;
2024/04/19 04:18:17;;;;;;;;;;;;;;;;;;;;;
2024/04/19 04:22:00;;;;;;;;;;;;;;;;;;;;;
2024/04/19 04:25:50;;;;;;;;;;;;;;;;;;;;;
2024/04/19 04:29:31;;;;;;;;;;;;;;;;;;;;;
2024/04/19 04:33:31;;;;;;;;;;;;;;;;;;;;;
2024/04/19 04:37:17;;;;;;;;;;;;;;;;;;;;;
2024/04/19 04:45:18;;;;;;;7.30;3.90;;;;;;;3.13;83.67;99840.49;126145;1297;637229;-63
2024/04/19 04:49:01;;;;;;;5.80;3.20;;;;;;;3.28;83.69;99832.15;127930;1297;128099;-63
2024/04/19 04:52:34;;;;;;;6.70;4.10;;;;;;;3.43;83.97;99831.90;126662;1287;114977;-63
2024/04/19 04:55:41;;;;;;;9.00;5.00;;;;;;;3.61;84.20;99825.23;127119;1289;114857;-62
2024/04/19 04:58:44;;;;;;;9.80;5.00;;;;;;;3.78;84.63;99827.23;127137;1299;351870;-63
2024/04/19 05:01:49;;;;;;;7.10;4.10;;;;;;;3.93;84.55;99817.93;127495;1303;114955;-61
2024/04/19 05:05:22;;;;;;;6.70;5.00;;;;;;;4.09;84.39;99811.47;127597;1281;130325;-63
2024/04/19 05:09:02;;;;;;;;;;;;;;;;;;;;;
2024/04/19 05:13:06;;;;;;;5.20;4.00;;;;;;;4.39;84.44;99817.24;126577;1295;114949;-62
2024/04/19 05:16:43;;;;;;;6.20;4.60;;;;;;;4.54;84.37;99813.59;125463;1322;116648;-63
2024/04/19 05:20:30;;;;;;;8.90;4.50;;;;;;;4.67;84.37;99814.75;125096;1316;114887;-65
2024/04/19 05:24:23;;;;;;;;;;;;;;;;;;;;;
2024/04/19 05:28:11;;;;;;;6.10;4.10;;;;;;;5.00;84.12;99806.23;125078;1322;115062;-65
2024/04/19 05:32:05;;;;;;;9.90;4.40;;;;;;;5.22;84.03;99793.23;125852;1298;114936;-66
2024/04/19 05:36:06;;;;;;;6.90;3.50;;;;;;;5.52;84.14;99791.09;125360;1321;115063;-64
2024/04/19 05:39:37;;;;;;;5.20;3.90;;;;;;;5.86;83.81;99788.40;125264;1325;114975;-65
2024/04/19 05:43:15;;;;;;;;;;;;;;;;;;;;;
2024/04/19 05:47:09;;;;;;;;;;;;;;;;;;;;;
2024/04/19 05:50:30;;;;;;;;;;;;;;;;;;;;;
2024/04/19 05:54:05;;;;;;;10.10;4.10;;;;;;;6.76;82.51;99770.64;124441;1325;114978;-65
2024/04/19 05:57:44;;;;;;;5.30;4.20;;;;;;;7.11;82.57;99761.85;124705;1329;114924;-64
2024/04/19 06:01:05;;;;;;;6.00;3.30;;;;;;;7.66;82.58;99757.65;124569;1314;128651;-65
2024/04/19 06:04:37;;;;;;;5.10;3.30;;;;;;;8.25;81.90;99753.80;124774;1308;114941;-63
2024/04/19 06:08:15;;;;;;;;;;;;;;;;;;;;;
2024/04/19 06:12:06;;;;;;;4.50;3.10;;;;;;;9.42;80.06;99742.17;125065;1298;114995;-65
2024/04/19 06:16:01;;;;;;;;;;;;;;;;;;;;;
2024/04/19 06:20:03;;;;;;;4.00;2.70;;;;;;;10.04;77.79;99737.91;125505;1299;129703;-65
2024/04/19 06:24:05;;;;;;;4.90;3.30;;;;;;;10.27;77.13;99731.09;125597;1292;114908;-62
2024/04/19 06:28:06;;;;;;;4.70;3.30;;;;;;;10.31;75.83;99730.63;125786;1301;115035;-62
2024/04/19 06:31:56;;;;;;;4.60;3.80;;;;;;;10.23;74.99;99734.35;125933;1312;114843;-63
2024/04/19 06:35:40;;;;;;;3.90;3.40;;;;;;;10.11;74.52;99729.81;126037;1303;114961;-63
2024/04/19 06:39:31;;;;;;;;;;;;;;;;;;;;;
2024/04/19 06:43:06;;;;;;;;;;;;;;;;;;;;;
2024/04/19 06:46:47;;;;;;;4.40;3.40;;;;;;;10.32;73.44;99706.16;124637;1305;114911;-62
2024/04/19 06:54:30;;;;;;;6.50;3.10;;;;;;;11.03;73.39;99699.13;126216;1298;636077;-62
2024/04/19 06:58:27;;;;;;;5.00;2.80;;;;;;;11.30;71.84;99694.59;128541;1267;128309;-62
2024/04/19 07:02:20;;;;;;;6.70;3.70;;;;;;;11.42;70.98;99691.17;128943;1290;114774;-62
2024/04/19 07:06:04;;;;;;;;;;;;;;;;;;;;;
2024/04/19 07:09:52;;;;;;;;;;;;;;;;;;;;;
2024/04/19 07:13:47;;;;;;;;;;;;;;;;;;;;;
2024/04/19 07:17:45;;;;;;;5.50;3.20;;;;;;;12.07;69.40;99672.77;127659;1278;114760;-62
2024/04/19 07:21:48;;;;;;;6.20;3.80;;;;;;;12.26;68.52;99666.83;127487;1283;128195;-62
2024/04/19 07:25:29;;;;;;;;;;;;;;;;;;;;;
2024/04/19 07:29:04;;;;;;;;;;;;;;;;;;;;;
2024/04/19 07:32:55;;;;;;;;;;;;;;;;;;;;;
2024/04/19 07:36:46;;;;;;;4.90;2.80;;;;;;;13.79;65.90;99639.33;125688;1317;114897;-63
2024/04/19 07:40:45;;;;;;;;;;;;;;;;;;;;;
2024/04/19 07:48:22;;;;;;;3.90;3.00;;;;;;;13.31;63.25;99630.44;126218;1295;636207;-61
2024/04/19 07:52:01;;;;;;;;;;;;;;;;;;;;;
2024/04/19 07:55:19;;;;;;;6.50;3.20;;;;;;;13.04;63.24;99622.64;127603;1282;114970;-62
2024/04/19 07:58:50;;;;;;;;;;;;;;;13.06;63.08;99624.33;128267;1297;115790;-63
2024/04/19 08:02:11;;;;;;;4.20;2.40;;;;;;;13.09;62.74;99617.79;128074;1279;413022;-62
2024/04/19 08:05:31;;;;;;;3.90;2.10;;;;;;;13.17;62.44;99612.06;127890;1294;115129;-62
2024/04/19 08:08:49;;;;;;;4.10;1.90;;;;;;;13.36;62.46;99610.70;128344;1277;128243;-62
2024/04/19 08:12:29;;;;;;;3.50;1.50;;;;;;;13.63;61.98;99608.25;128485;1285;114771;-62
2024/04/19 08:16:11;;;;;;;2.60;1.20;;;;;;;14.04;61.46;99596.98;128690;1269;114879;-62
2024/04/19 08:19:34;;;;;;;4.60;1.80;;;;;;;14.40;61.01;99593.16;128650;1273;114846;-62
2024/04/19 08:23:08;;;;;;;3.20;1.40;;;;;;;14.70;60.40;99586.21;129175;1283;114927;-62
2024/04/19 08:26:50;;;;;;;2.70;1.50;;;;;;;15.09;60.32;99581.34;129007;1283;128496;-62
2024/04/19 08:30:31;;;;;;;;;;;;;;;;;;;;;
2024/04/19 08:34:02;;;;;;;4.50;2.10;;;;;;;15.93;58.47;99567.54;129803;1269;115087;-62
2024/04/19 08:37:51;;;;;;;3.00;2.00;;;;;;;16.27;57.74;99558.73;130112;1275;114783;-63
2024/04/19 08:41:35;;;;;;;;;;;;;;;;;;;;;
2024/04/19 08:45:07;;;;;;;4.90;2.70;;;;;;;16.82;55.29;99540.98;130011;1259;127953;-63
2024/04/19 08:48:29;;;;;;;4.80;2.50;;;;;;;16.99;55.32;99532.02;130236;1257;114697;-63
2024/04/19 08:52:16;;;;;;;;;;;;;;;;;;;;;
2024/04/19 08:56:14;;;;;;;4.00;2.80;;;;;;;17.28;54.63;99518.98;129567;1264;114858;-61
2024/04/19 09:00:16;;;;;;;4.70;3.40;;;;;;;17.34;54.00;99511.53;129280;1283;114862;-63
2024/04/19 09:03:41;;;;;;;5.20;2.80;;;;;;;17.32;53.44;99505.19;128841;1288;128541;-63
2024/04/19 09:07:45;;;;;;;4.90;2.90;;;;;;;17.46;53.17;99501.93;128908;1288;114932;-63
2024/04/19 09:11:45;;;;;;;;;;;;;;;;;;;;;
2024/04/19 09:15:28;;;;;;;3.40;2.30;;;;;;;17.71;51.97;99484.15;127839;1300;114968;-62
2024/04/19 09:19:28;;;;;;;3.40;2.20;;;;;;;17.81;51.34;99476.71;127763;1281;114899;-63
2024/04/19 09:23:21;;;;;;;;;;;;;;;;;;;;;
2024/04/19 09:27:42;;;;;;;;;;;;;;;;;;;;;
2024/04/19 09:31:31;;;;;;;5.00;2.90;;;;;;;17.82;48.97;99456.27;128729;1286;129352;-63
2024/04/19 09:35:12;;;;;;;5.50;3.40;;;;;;;17.53;48.59;99449.67;128743;1273;115134;-64
2024/04/19 09:38:59;;;;;;;;;;;;;;;;;;;;;
2024/04/19 09:42:46;;;;;;;4.30;3.40;;;;;;;17.18;47.19;99435.91;123943;1283;115270;-63
2024/04/19 09:46:46;;;;;;;5.70;2.90;;;;;;;16.83;45.92;99426.30;126637;1306;114904;-62
2024/04/19 09:50:29;;;;;;;5.70;3.10;;;;;;;16.49;47.24;99424.19;126929;1287;114924;-65
2024/04/19 09:54:13;;;;;;;3.50;2.70;;;;;;;16.58;47.90;99414.17;126237;1305;129007;-63
2024/04/19 09:57:59;;;;;;;;;;;;;;;;;;;;;
2024/04/19 10:01:50;;;;;;;3.40;2.70;;;;;;;17.14;46.41;99395.67;125223;1321;115088;-62
2024/04/19 10:05:42;;;;;;;5.30;2.90;;;;;;;17.21;46.21;99391.33;124827;1319;114933;-63
2024/04/19 10:09:26;;;;;;;;;;;;;;;;;;;;;
2024/04/19 10:12:56;;;;;;;;;;;;;;;17.41;44.97;99375.05;124522;1312;129797;-64
2024/04/19 10:16:42;;;;;;;;;;;;;;;;;;;;;
2024/04/19 10:20:13;;;;;;;8.00;3.50;;;;;;;17.05;44.56;99366.44;124972;1319;115024;-63
2024/04/19 10:23:41;;;;;;;2.70;2.30;;;;;;;16.91;44.24;99363.99;126123;1313;114946;-64
2024/04/19 10:27:53;;;;;;;3.00;2.20;;;;;;;17.02;44.47;99356.61;125911;1292;114925;-64
2024/04/19 10:31:33;;;;;;;5.10;3.10;;;;;;;17.24;44.87;99349.84;126389;1286;127892;-71
2024/04/19 10:35:04;;;;;;;;;;;;;;;;;;;;;
2024/04/19 10:38:59;;;;;;;4.00;2.80;;;;;;;17.70;44.28;99333.13;125697;1307;114986;-64
2024/04/19 10:42:45;;;;;;;;;;;;;;;;;;;;;
2024/04/19 10:46:22;;;;;;;;;;;;;;;;;;;;;
2024/04/19 10:50:15;;;;;;;3.80;3.00;;;;;;;17.56;43.14;99320.51;127108;1295;129918;-64
2024/04/19 10:53:56;;;;;;;5.60;2.50;;;;;;;17.47;42.65;99316.30;126906;1302;114829;-64
2024/04/19 10:57:10;;;;;;;4.00;2.00;;;;;;;17.42;42.43;99316.39;126959;1302;114870;-65
2024/04/19 11:01:11;;;;;;;3.30;2.00;;;;;;;17.48;42.59;99316.55;126997;1305;114958;-66
2024/04/19 11:04:21;;;;;;;5.80;2.30;;;;;;;17.42;42.12;99322.21;126121;1295;115010;-65
2024/04/19 11:07:55;;;;;;;4.60;2.50;;;;;;;17.05;42.11;99333.02;125598;1296;129678;-64
2024/04/19 11:11:36;;;;;;;3.80;3.10;;;;;;;16.44;43.13;99372.22;125964;1295;114958;-65
2024/04/19 11:15:10;;;;;;;3.70;2.70;;;;;;;15.62;44.86;99356.95;126775;1288;115010;-65
2024/04/19 11:18:56;;;;;;;;;;;;;;;;;;;;;
2024/04/19 11:23:01;;;;;;;4.80;2.80;;;;;;;14.46;47.19;99337.23;130534;1289;112883;-66
2024/04/19 11:26:51;;;;;;;;;;;;;;;;;;;;;
2024/04/19 11:30:37;;;;;;;;;;;;;;;;;;;;;
2024/04/19 11:33:56;;;;;;;;;;;;;;;14.41;49.52;99293.41;124679;1314;114908;-64
2024/04/19 11:37:47;;;;;;;3.40;2.50;;;;;;;14.54;49.22;99277.65;124847;1315;114810;-64
2024/04/19 11:41:19;;;;;;;;;;;;;;;14.76;49.26;99264.55;125331;1315;114933;-64
2024/04/19 11:44:52;;;;;;;;;;;;;;;;;;;;;
2024/04/19 11:48:38;;;;;;;4.50;3.30;;;;;;;14.68;49.33;99252.61;125621;1295;114951;-65
2024/04/19 11:52:32;;;;;;;3.70;3.00;;;;;;;14.65;49.72;99237.94;125998;1309;114905;-66
2024/04/19 11:56:27;;;;;;;3.00;2.30;;;;;;;14.63;48.57;99231.04;126352;1302;114982;-65
2024/04/19 12:00:08;;;;;;;3.20;2.00;;;;;;;14.56;47.53;99226.44;126300;1309;114812;-65
2024/04/19 12:03:55;;;;;;;9.20;2.40;;;;;;;14.66;47.69;99217.49;127515;1296;129711;-63
2024/04/19 12:07:30;;;;;;;2.70;2.20;;;;;;;14.83;47.26;99216.70;128426;1279;114742;-64
2024/04/19 12:11:26;;;;;;;2.20;2.00;;;;;;;15.04;47.10;99210.73;129084;1269;114819;-64
2024/04/19 12:15:26;;;;;;;4.20;2.40;;;;;;;15.30;46.45;99203.67;128550;1274;114829;-67
2024/04/19 12:19:14;;;;;;;3.90;1.90;;;;;;;15.61;45.60;99201.72;128307;1277;114997;-64
2024/04/19 12:23:15;;;;;;;3.70;1.50;;;;;;;15.73;45.20;99201.19;127962;1296;127834;-63
2024/04/19 12:27:11;;;;;;;;;;;;;;;;;;;;;
2024/04/19 12:30:56;;;;;;;3.00;2.00;;;;;;;16.02;44.51;99186.58;127375;1301;114799;-63
2024/04/19 12:34:40;;;;;;;;;;;;;;;;;;;;;
2024/04/19 12:38:21;;;;;;;;;;;;;;;;;;;;;
2024/04/19 12:41:31;;;;;;;4.70;1.80;;;;;;;16.17;43.88;99165.79;127584;1281;129037;-64
2024/04/19 12:44:55;;;;;;;2.40;1.80;;;;;;;16.24;43.72;99158.52;126831;1288;114884;-64
2024/04/19 12:48:35;;;;;;;2.60;1.70;;;;;;;16.22;43.22;99152.70;126675;1283;114984;-65
2024/04/19 12:52:27;;;;;;;;;;;;;;;;;;;;;
2024/04/19 12:56:17;;;;;;;2.60;2.00;;;;;;;15.95;43.22;99140.16;127713;1287;114808;-63
2024/04/19 12:59:50;;;;;;;2.50;1.70;;;;;;;15.75;42.91;99133.67;126925;1283;129731;-64
2024/04/19 13:03:30;;;;;;;4.50;1.90;;;;;;;15.60;43.35;99123.34;126778;1284;114800;-63
2024/04/19 13:06:53;;;;;;;3.60;1.90;;;;;;;15.46;42.61;99115.89;126800;1302;114920;-63
2024/04/19 13:10:12;;;;;;;;;;;;;;;;;;;;;
2024/04/19 13:13:41;;;;;;;;;;;;;;;;;;;;;
2024/04/19 13:17:39;;;;;;;2.80;1.80;;;;;;;15.27;42.96;99096.88;127593;1277;128952;-64
2024/04/19 13:21:30;;;;;;;;;;;;;;;;;;;;;
2024/04/19 13:25:16;;;;;;;2.60;1.40;;;;;;;14.86;42.59;99083.63;126849;1290;114986;-65
2024/04/19 13:28:54;;;;;;;2.30;0.90;;;;;;;14.59;42.73;99081.17;126701;1304;114930;-63
2024/04/19 13:32:42;;;;;;;3.50;1.30;;;;;;;14.57;43.69;99078.80;126449;1294;114985;-64
2024/04/19 13:36:36;;;;;;;;;;;;;;;;;;;;;
2024/04/19 13:40:20;;;;;;;3.00;1.20;;;;;;;14.73;43.21;99070.86;126521;1290;114858;-64
2024/04/19 13:43:56;;;;;;;;;;;;;;;;;;;;;
2024/04/19 13:47:40;;;;;;;;;;;;;;;;;;;;;
2024/04/19 13:51:28;;;;;;;1.60;0.90;;;;;;;14.12;43.50;99066.64;126453;1292;114994;-63
2024/04/19 13:55:07;;;;;;;2.60;1.10;;;;;;;13.97;43.36;99067.56;125304;1297;128657;-63
2024/04/19 13:58:54;;;;;;;3.50;1.40;;;;;;;13.89;43.52;99060.70;125940;1311;114882;-63
2024/04/19 14:02:50;;;;;;;;;;;;;;;;;;;;;
2024/04/19 14:06:49;;;;;;;3.10;1.30;;;;;;;13.91;43.95;99051.67;126322;1303;114955;-63
2024/04/19 14:10:44;;;;;;;2.30;1.20;;;;;;;14.02;43.79;99040.77;126936;1283;114946;-64
2024/04/19 14:14:33;;;;;;;3.60;1.40;;;;;;;14.11;43.79;99046.45;126632;1308;129630;-63
2024/04/19 14:18:31;;;;;;;;;;;;;;;;;;;;;
2024/04/19 14:22:24;;;;;;;;;;;;;;;;;;;;;
2024/04/19 14:26:07;;;;;;;2.80;1.20;;;;;;;14.06;43.74;99031.94;125930;1300;114936;-65
2024/04/19 14:29:50;;;;;;;;;;;;;;;;;;;;;
2024/04/19 14:33:52;;;;;;;2.10;1.10;;;;;;;13.99;43.49;99026.62;126057;1297;129732;-63
2024/04/19 14:37:47;;;;;;;4.50;2.50;;;;;;;14.08;43.84;99025.00;125747;1316;114886;-64
2024/04/19 14:41:25;;;;;;;3.40;1.10;;;;;;;14.22;43.81;99013.06;125261;1305;114922;-64
2024/04/19 14:44:58;;;;;;;3.50;1.40;;;;;;;14.30;43.81;99013.23;125397;1319;115100;-62
2024/04/19 14:49:01;;;;;;;2.50;1.10;;;;;;;14.37;43.98;99006.20;125389;1321;115082;-64
2024/04/19 14:52:32;;;;;;;2.90;1.70;;;;;;;14.38;43.74;98992.83;124861;1303;129752;-63
2024/04/19 15:00:27;;;;;;;2.80;1.50;;;;;;;14.09;43.71;98987.71;126210;1305;636045;-62
2024/04/19 15:04:30;;;;;;;3.20;1.60;;;;;;;13.94;44.05;98982.00;128793;1273;128790;-65
2024/04/19 15:08:07;;;;;;;;;;;;;;;;;;;;;
2024/04/19 15:12:01;;;;;;;;;;;;;;;;;;;;;
2024/04/19 15:15:50;;;;;;;2.20;1.30;;;;;;;13.49;44.10;98972.48;123443;1302;114978;-61
2024/04/19 15:19:36;;;;;;;3.60;1.90;;;;;;;13.47;44.10;98972.48;126097;1298;115727;-63
2024/04/19 15:23:35;;;;;;;2.20;1.50;;;;;;;13.49;44.41;98969.95;126112;1295;114879;-63
2024/04/19 15:27:27;;;;;;;2.40;1.70;;;;;;;13.44;44.30;98962.09;126216;1295;128253;-64
2024/04/19 15:31:29;;;;;;;4.50;1.50;;;;;;;13.35;44.61;98960.48;125752;1296;114949;-66
2024/04/19 15:35:12;;;;;;;;;;;;;;;;;;;;;
2024/04/19 15:38:52;;;;;;;;;;;;;;;;;;;;;
2024/04/19 15:42:20;;;;;;;4.70;1.90;;;;;;;12.82;44.69;98966.77;124243;1327;114823;-66
2024/04/19 15:46:12;;;;;;;4.20;1.80;;;;;;;12.57;45.10;98968.73;125614;1318;129146;-64
2024/04/19 15:49:51;;;;;;;;;;;;;;;;;;;;;
2024/04/19 15:53:42;;;;;;;3.10;2.40;;;;;;;12.04;46.57;98981.10;125821;1292;115021;-64
2024/04/19 15:57:35;;;;;;;3.60;1.70;;;;;;;11.88;47.87;98987.41;125693;1311;114962;-62
2024/04/19 16:01:17;;;;;;;3.20;1.60;;;;;;;11.66;48.32;98984.77;125965;1314;114895;-62
2024/04/19 16:05:01;;;;;;;3.00;1.50;;;;;;;11.45;49.11;98982.08;125771;1314;129721;-62
2024/04/19 16:08:40;;;;;;;3.80;2.00;;;;;;;11.20;50.03;98979.23;126102;1305;114778;-63
2024/04/19 16:12:28;;;;;;;3.00;1.40;;;;;;;11.09;50.45;98971.86;126339;1308;115000;-63
2024/04/19 16:16:21;;;;;;;;;;;;;;;;;;;;;
2024/04/19 16:20:23;;;;;;;9.50;1.80;;;;;;;10.92;51.25;98966.08;125747;1311;114923;-64
2024/04/19 16:24:13;;;;;;;2.30;1.70;;;;;;;10.82;51.22;98959.09;125710;1299;129798;-62
2024/04/19 16:28:07;;;;;;;;;;;;;;;;;;;;;
2024/04/19 16:36:14;;;;;;;3.00;1.30;;;;;;;10.56;52.34;98939.73;125476;1310;636193;-64
2024/04/19 16:39:56;;;;;;;;;;;;;;;;;;;;;
2024/04/19 16:47:50;;;;;;;3.20;2.10;;;;;;;10.33;53.53;98933.81;123959;1283;5599592;-64
2024/04/19 16:51:40;;;;;;;;;;;;;;;;;;;;;
2024/04/19 16:59:42;;;;;;;;;;;;;;;;;;;;;
2024/04/19 17:03:26;;;;;;;12.90;6.50;;;;;;;9.98;54.60;98926.63;127844;1275;128956;-65
2024/04/19 17:07:21;;;;;;;9.90;4.30;;;;;;;9.88;54.65;98927.16;127966;1283;114909;-63
2024/04/19 17:11:01;;;;;;;3.00;1.60;;;;;;;9.76;54.70;98930.60;128177;1283;114807;-64
2024/04/19 17:14:57;;;;;;;;;;;;;;;;;;;;;
2024/04/19 17:18:43;;;;;;;;;;;;;;;;;;;;;
2024/04/19 17:22:09;;;;;;;3.20;1.10;;;;;;;9.55;55.69;98929.86;128054;1287;129006;-62
2024/04/19 17:25:53;;;;;;;4.50;1.60;;;;;;;9.49;56.23;98927.44;128456;1294;114938;-60
2024/04/19 17:29:54;;;;;;;2.60;1.70;;;;;;;9.44;56.37;98925.30;128180;1280;115440;-64
2024/04/19 17:33:54;;;;;;;2.70;1.80;;;;;;;9.41;56.41;98925.51;127648;1286;115002;-66
2024/04/19 17:37:25;;;;;;;3.20;1.60;;;;;;;9.34;56.71;98920.61;127243;1304;114892;-63
2024/04/19 17:41:11;;;;;;;2.70;1.60;;;;;;;9.26;56.81;98925.36;127318;1298;129580;-63
2024/04/19 17:45:03;;;;;;;;;;;;;;;;;;;;;
2024/04/19 17:49:06;;;;;;;5.30;1.70;;;;;;;9.20;56.95;98927.40;127835;1282;114898;-64
2024/04/19 17:53:02;;;;;;;;;;;;;;;;;;;;;
2024/04/19 17:57:04;;;;;;;2.90;1.30;;;;;;;9.10;57.38;98926.23;127730;1292;114867;-64
2024/04/19 18:00:58;;;;;;;;;;;;;;;;;;;;;
2024/04/19 18:04:23;;;;;;;2.80;1.00;;;;;;;8.96;57.60;98928.25;126025;1311;114930;-63
2024/04/19 18:08:15;;;;;;;1.80;1.20;;;;;;;8.91;57.79;98930.34;126375;1292;114975;-62
2024/04/19 18:12:02;;;;;;;2.30;0.80;;;;;;;8.87;58.13;98926.19;127068;1289;115409;-63
2024/04/19 18:15:57;;;;;;;2.50;0.90;;;;;;;8.83;58.00;98928.58;126547;1292;114850;-64
2024/04/19 18:19:58;;;;;;;;;;;;;;;;;;;;;
2024/04/19 18:23:34;;;;;;;;;;;;;;;8.78;58.43;98935.44;125949;1299;114878;-63
2024/04/19 18:27:36;;;;;;;1.00;0.60;;;;;;;8.76;58.76;98937.21;126039;1299;114906;-64
2024/04/19 18:31:20;;;;;;;2.90;1.10;;;;;;;8.73;58.86;98940.45;125575;1320;114909;-63
2024/04/19 18:35:43;;;;;;;5.10;2.30;;;;;;;8.72;59.01;98941.20;126296;1295;636261;-63
2024/04/19 18:39:26;;;;;;;11.60;5.40;;;;;;;8.67;59.25;98942.59;127676;1285;128598;-62
2024/04/19 18:43:18;;;;;;;;;;;;;;;;;;;;;
2024/04/19 18:47:30;;;;;;;7.10;3.50;;;;;;;8.66;59.35;98947.77;126328;1295;636475;-66
2024/04/19 18:51:25;;;;;;;5.30;2.60;;;;;;;8.63;59.44;98953.65;128136;1284;128390;-65
2024/04/19 18:55:19;;;;;;;;;;;;;;;;;;;;;
2024/04/19 18:59:25;;;;;;;3.80;1.40;;;;;;;8.65;60.06;98962.42;127334;1287;114935;-64
2024/04/19 19:03:25;;;;;;;;;;;;;;;;;;;;;
2024/04/19 19:07:16;;;;;;;5.30;3.10;;;;;;;8.65;61.04;98976.16;125900;1301;114955;-65
2024/04/19 19:10:23;;;;;;;4.60;2.40;;;;;;;8.63;61.53;98979.08;125359;1304;114949;-64
2024/04/19 19:13:59;;;;;;;5.00;2.40;;;;;;;8.63;61.57;98974.86;125420;1319;129786;-64
2024/04/19 19:17:52;;;;;;;;;;;;;;;;;;;;;
2024/04/19 19:21:25;;;;;;;;;;;;;;;;;;;;;
2024/04/19 19:25:11;;;;;;;;;;;;;;;;;;;;;
2024/04/19 19:29:06;;;;;;;5.70;3.40;;;;;;;8.60;63.65;98974.35;124852;1326;114917;-63
2024/04/19 19:32:36;;;;;;;;;;;;;;;;;;;;;
2024/04/19 19:36:14;;;;;;;;;;;;;;;;;;;;;
2024/04/19 19:40:02;;;;;;;4.30;2.40;;;;;;;8.55;64.54;98963.63;125259;1319;114961;-63
2024/04/19 19:44:05;;;;;;;4.40;2.10;;;;;;;8.52;64.83;98966.10;125454;1314;115185;-64
2024/04/19 19:47:49;;;;;;;3.40;1.70;;;;;;;8.49;65.12;98969.63;125549;1317;115257;-64
2024/04/19 19:51:08;;;;;;;4.80;2.50;;;;;;;8.46;65.06;98970.35;125359;1303;130057;-66
2024/04/19 19:54:21;;;;;;;4.30;2.50;;;;;;;8.42;65.18;98972.20;125788;1317;114928;-65
2024/04/19 19:58:06;;;;;;;4.80;2.20;;;;;;;8.41;65.40;98975.33;126117;1290;114937;-65
2024/04/19 20:06:00;;;;;;;3.40;2.00;;;;;;;8.36;65.81;98971.33;126885;1290;114918;-65
2024/04/19 20:09:49;;;;;;;3.60;2.00;;;;;;;8.33;65.42;98967.95;126475;1303;129068;-64
2024/04/19 20:13:43;;;;;;;5.70;2.20;;;;;;;8.31;66.06;98968.77;126922;1291;114939;-64
2024/04/19 20:17:19;;;;;;;4.40;1.90;;;;;;;8.29;66.44;98969.08;127261;1302;114938;-64
2024/04/19 20:20:58;;;;;;;4.50;2.40;;;;;;;8.28;66.33;98968.26;127539;1283;114903;-65
2024/04/19 20:24:25;;;;;;;3.30;2.10;;;;;;;8.28;66.65;98969.70;127947;1273;114947;-64
2024/04/19 20:28:02;;;;;;;3.90;2.50;;;;;;;8.26;66.74;98966.41;128619;1287;127528;-64
2024/04/19 20:31:49;;;;;;;;;;;;;;;;;;;;;
2024/04/19 20:39:19;;;;;;;2.90;1.60;;;;;;;8.17;66.92;98961.83;128423;1277;115234;-63
2024/04/19 20:42:31;;;;;;;2.40;1.40;;;;;;;8.13;66.85;98961.33;128810;1294;114834;-64
2024/04/19 20:46:08;;;;;;;2.50;1.30;;;;;;;8.09;66.88;98962.48;128526;1275;128466;-64
2024/04/19 20:49:20;;;;;;;3.00;2.00;;;;;;;8.04;66.98;98961.88;128889;1273;114796;-65
2024/04/19 20:52:25;;;;;;;4.80;1.80;;;;;;;7.99;67.45;98961.48;129052;1274;114932;-66
2024/04/19 20:55:34;;;;;;;8.20;4.50;;;;;;;7.94;67.29;98959.09;128718;1273;114890;-64
2024/04/19 20:58:56;;;;;;;14.50;7.40;;;;;;;7.88;67.11;98958.89;128641;1275;114847;-64
2024/04/19 21:02:21;;;;;;;10.20;5.30;;;;;;;7.86;67.59;98957.30;128752;1276;128062;-65
2024/04/19 21:06:13;;;;;;;9.10;4.00;;;;;;;7.82;67.47;98958.75;129058;1275;114795;-65
2024/04/19 21:09:43;;;;;;;8.50;3.00;;;;;;;7.78;67.78;98959.01;128692;1273;114749;-65
2024/04/19 21:13:47;;;;;;;6.10;3.00;;;;;;;7.76;67.67;98962.67;128425;1274;114888;-65